sensor_id;sensor_type;location;lat;lon;timestamp;P1;durP1;ratioP1;P2;durP2;ratioP2
85475;SDS011;75880;41.476;22.164;2024-01-25T00:01:33;18.13;;;7.80;;
85475;SDS011;75880;41.476;22.164;2024-01-25T00:06:24;21.20;;;9.43;;
85475;SDS011;75880;41.476;22.164;2024-01-25T00:08:50;15.25;;;6.53;;
85475;SDS011;75880;41.476;22.164;2024-01-25T00:11:19;17.20;;;8.60;;
85475;SDS011;75880;41.476;22.164;2024-01-25T00:13:45;17.25;;;9.13;;
85475;SDS011;75880;41.476;22.164;2024-01-25T00:18:36;31.52;;;13.82;;
85475;SDS011;75880;41.476;22.164;2024-01-25T00:23:27;30.77;;;15.30;;
85475;SDS011;75880;41.476;22.164;2024-01-25T00:28:21;46.85;;;17.27;;
85475;SDS011;75880;41.476;22.164;2024-01-25T00:30:46;61.40;;;23.83;;
85475;SDS011;75880;41.476;22.164;2024-01-25T00:33:12;45.58;;;18.80;;
85475;SDS011;75880;41.476;22.164;2024-01-25T00:38:03;48.42;;;21.80;;
85475;SDS011;75880;41.476;22.164;2024-01-25T00:42:55;38.97;;;17.63;;
85475;SDS011;75880;41.476;22.164;2024-01-25T00:45:21;42.25;;;19.90;;
85475;SDS011;75880;41.476;22.164;2024-01-25T00:47:50;37.85;;;18.98;;
85475;SDS011;75880;41.476;22.164;2024-01-25T00:50:16;37.67;;;18.55;;
85475;SDS011;75880;41.476;22.164;2024-01-25T00:52:45;40.42;;;18.65;;
85475;SDS011;75880;41.476;22.164;2024-01-25T00:55:11;39.92;;;18.67;;
85475;SDS011;75880;41.476;22.164;2024-01-25T00:57:37;42.85;;;18.48;;
85475;SDS011;75880;41.476;22.164;2024-01-25T01:00:03;33.45;;;17.52;;
85475;SDS011;75880;41.476;22.164;2024-01-25T01:02:30;36.63;;;17.73;;
85475;SDS011;75880;41.476;22.164;2024-01-25T01:05:01;47.95;;;21.77;;
85475;SDS011;75880;41.476;22.164;2024-01-25T01:09:52;43.83;;;21.40;;
85475;SDS011;75880;41.476;22.164;2024-01-25T01:14:43;56.78;;;21.33;;
85475;SDS011;75880;41.476;22.164;2024-01-25T01:19:34;31.70;;;13.55;;
85475;SDS011;75880;41.476;22.164;2024-01-25T01:22:00;33.55;;;16.25;;
85475;SDS011;75880;41.476;22.164;2024-01-25T01:24:26;31.20;;;16.15;;
85475;SDS011;75880;41.476;22.164;2024-01-25T01:26:52;38.42;;;17.52;;
85475;SDS011;75880;41.476;22.164;2024-01-25T01:29:17;40.15;;;17.25;;
85475;SDS011;75880;41.476;22.164;2024-01-25T01:31:43;43.28;;;17.02;;
85475;SDS011;75880;41.476;22.164;2024-01-25T01:34:09;30.38;;;15.40;;
85475;SDS011;75880;41.476;22.164;2024-01-25T01:36:38;36.17;;;17.08;;
85475;SDS011;75880;41.476;22.164;2024-01-25T01:39:03;32.45;;;16.15;;
85475;SDS011;75880;41.476;22.164;2024-01-25T01:41:29;39.67;;;17.98;;
85475;SDS011;75880;41.476;22.164;2024-01-25T01:43:55;33.72;;;15.98;;
85475;SDS011;75880;41.476;22.164;2024-01-25T01:46:25;42.65;;;18.20;;
85475;SDS011;75880;41.476;22.164;2024-01-25T01:48:59;41.67;;;15.80;;
85475;SDS011;75880;41.476;22.164;2024-01-25T01:51:25;34.45;;;16.20;;
85475;SDS011;75880;41.476;22.164;2024-01-25T01:53:51;33.95;;;15.65;;
85475;SDS011;75880;41.476;22.164;2024-01-25T01:56:21;33.35;;;16.17;;
85475;SDS011;75880;41.476;22.164;2024-01-25T01:58:47;37.20;;;16.70;;
85475;SDS011;75880;41.476;22.164;2024-01-25T02:01:14;34.60;;;17.42;;
85475;SDS011;75880;41.476;22.164;2024-01-25T02:03:39;37.78;;;16.38;;
85475;SDS011;75880;41.476;22.164;2024-01-25T02:06:06;33.92;;;16.05;;
85475;SDS011;75880;41.476;22.164;2024-01-25T02:08:32;29.88;;;16.48;;
85475;SDS011;75880;41.476;22.164;2024-01-25T02:10:58;33.17;;;16.33;;
85475;SDS011;75880;41.476;22.164;2024-01-25T02:13:23;49.38;;;21.98;;
85475;SDS011;75880;41.476;22.164;2024-01-25T02:15:49;73.45;;;31.10;;
85475;SDS011;75880;41.476;22.164;2024-01-25T02:18:15;63.05;;;28.20;;
85475;SDS011;75880;41.476;22.164;2024-01-25T02:23:06;29.90;;;14.90;;
85475;SDS011;75880;41.476;22.164;2024-01-25T02:25:32;28.00;;;13.68;;
85475;SDS011;75880;41.476;22.164;2024-01-25T02:27:58;32.85;;;14.77;;
85475;SDS011;75880;41.476;22.164;2024-01-25T02:30:23;31.67;;;15.70;;
85475;SDS011;75880;41.476;22.164;2024-01-25T02:32:49;30.52;;;15.30;;
85475;SDS011;75880;41.476;22.164;2024-01-25T02:37:40;31.50;;;13.32;;
85475;SDS011;75880;41.476;22.164;2024-01-25T02:40:06;32.67;;;15.82;;
85475;SDS011;75880;41.476;22.164;2024-01-25T02:42:32;49.92;;;20.42;;
85475;SDS011;75880;41.476;22.164;2024-01-25T02:44:58;41.67;;;19.35;;
85475;SDS011;75880;41.476;22.164;2024-01-25T02:47:24;40.78;;;18.75;;
85475;SDS011;75880;41.476;22.164;2024-01-25T02:52:15;97.43;;;34.75;;
85475;SDS011;75880;41.476;22.164;2024-01-25T02:54:41;49.90;;;20.95;;
85475;SDS011;75880;41.476;22.164;2024-01-25T02:57:06;41.80;;;18.90;;
85475;SDS011;75880;41.476;22.164;2024-01-25T02:59:32;47.00;;;22.80;;
85475;SDS011;75880;41.476;22.164;2024-01-25T03:01:58;45.38;;;21.90;;
85475;SDS011;75880;41.476;22.164;2024-01-25T03:04:23;38.55;;;18.08;;
85475;SDS011;75880;41.476;22.164;2024-01-25T03:06:49;51.83;;;22.52;;
85475;SDS011;75880;41.476;22.164;2024-01-25T03:09:17;45.47;;;19.83;;
85475;SDS011;75880;41.476;22.164;2024-01-25T03:11:43;26.20;;;14.65;;
85475;SDS011;75880;41.476;22.164;2024-01-25T03:14:09;37.88;;;19.27;;
85475;SDS011;75880;41.476;22.164;2024-01-25T03:16:34;39.92;;;19.20;;
85475;SDS011;75880;41.476;22.164;2024-01-25T03:19:00;36.15;;;17.23;;
85475;SDS011;75880;41.476;22.164;2024-01-25T03:23:51;27.13;;;14.25;;
85475;SDS011;75880;41.476;22.164;2024-01-25T03:26:17;37.38;;;16.95;;
85475;SDS011;75880;41.476;22.164;2024-01-25T03:31:08;54.63;;;22.00;;
85475;SDS011;75880;41.476;22.164;2024-01-25T03:33:34;31.67;;;16.88;;
85475;SDS011;75880;41.476;22.164;2024-01-25T03:36:03;32.28;;;15.25;;
85475;SDS011;75880;41.476;22.164;2024-01-25T03:38:30;36.30;;;17.08;;
85475;SDS011;75880;41.476;22.164;2024-01-25T03:40:55;30.10;;;16.67;;
85475;SDS011;75880;41.476;22.164;2024-01-25T03:43:23;32.15;;;16.45;;
85475;SDS011;75880;41.476;22.164;2024-01-25T03:45:49;36.17;;;16.30;;
85475;SDS011;75880;41.476;22.164;2024-01-25T03:48:15;32.20;;;14.50;;
85475;SDS011;75880;41.476;22.164;2024-01-25T03:50:41;27.55;;;13.10;;
85475;SDS011;75880;41.476;22.164;2024-01-25T03:53:07;28.02;;;14.95;;
85475;SDS011;75880;41.476;22.164;2024-01-25T03:55:32;26.95;;;14.48;;
85475;SDS011;75880;41.476;22.164;2024-01-25T03:57:58;28.70;;;13.68;;
85475;SDS011;75880;41.476;22.164;2024-01-25T04:00:24;36.85;;;15.82;;
85475;SDS011;75880;41.476;22.164;2024-01-25T04:05:15;23.90;;;12.82;;
85475;SDS011;75880;41.476;22.164;2024-01-25T04:07:41;30.00;;;14.73;;
85475;SDS011;75880;41.476;22.164;2024-01-25T04:10:07;32.53;;;15.88;;
85475;SDS011;75880;41.476;22.164;2024-01-25T04:12:32;37.85;;;18.48;;
85475;SDS011;75880;41.476;22.164;2024-01-25T04:14:58;48.10;;;19.88;;
85475;SDS011;75880;41.476;22.164;2024-01-25T04:17:24;37.85;;;17.77;;
85475;SDS011;75880;41.476;22.164;2024-01-25T04:19:50;46.85;;;21.85;;
85475;SDS011;75880;41.476;22.164;2024-01-25T04:22:16;49.13;;;23.70;;
85475;SDS011;75880;41.476;22.164;2024-01-25T04:24:42;55.28;;;23.35;;
85475;SDS011;75880;41.476;22.164;2024-01-25T04:27:10;52.38;;;24.42;;
85475;SDS011;75880;41.476;22.164;2024-01-25T04:29:39;58.28;;;26.02;;
85475;SDS011;75880;41.476;22.164;2024-01-25T04:32:07;58.78;;;29.08;;
85475;SDS011;75880;41.476;22.164;2024-01-25T04:34:33;133.23;;;61.40;;
85475;SDS011;75880;41.476;22.164;2024-01-25T04:39:27;76.25;;;31.15;;
85475;SDS011;75880;41.476;22.164;2024-01-25T04:41:53;47.38;;;23.15;;
85475;SDS011;75880;41.476;22.164;2024-01-25T04:46:44;53.80;;;21.10;;
85475;SDS011;75880;41.476;22.164;2024-01-25T04:51:35;157.98;;;57.45;;
85475;SDS011;75880;41.476;22.164;2024-01-25T04:54:01;80.68;;;31.50;;
85475;SDS011;75880;41.476;22.164;2024-01-25T04:56:31;60.45;;;24.20;;
85475;SDS011;75880;41.476;22.164;2024-01-25T04:58:57;93.60;;;38.92;;
85475;SDS011;75880;41.476;22.164;2024-01-25T05:01:23;66.65;;;26.70;;
85475;SDS011;75880;41.476;22.164;2024-01-25T05:03:49;62.65;;;27.98;;
85475;SDS011;75880;41.476;22.164;2024-01-25T05:06:14;58.05;;;24.98;;
85475;SDS011;75880;41.476;22.164;2024-01-25T05:08:41;43.70;;;21.27;;
85475;SDS011;75880;41.476;22.164;2024-01-25T05:11:08;47.00;;;21.65;;
85475;SDS011;75880;41.476;22.164;2024-01-25T05:13:34;45.20;;;20.55;;
85475;SDS011;75880;41.476;22.164;2024-01-25T05:16:03;49.80;;;26.50;;
85475;SDS011;75880;41.476;22.164;2024-01-25T05:18:29;55.35;;;25.20;;
85475;SDS011;75880;41.476;22.164;2024-01-25T05:20:54;56.95;;;25.98;;
85475;SDS011;75880;41.476;22.164;2024-01-25T05:23:20;48.80;;;24.40;;
85475;SDS011;75880;41.476;22.164;2024-01-25T05:28:11;50.53;;;22.58;;
85475;SDS011;75880;41.476;22.164;2024-01-25T05:33:03;74.18;;;31.77;;
85475;SDS011;75880;41.476;22.164;2024-01-25T05:35:29;60.60;;;28.85;;
85475;SDS011;75880;41.476;22.164;2024-01-25T05:37:54;88.05;;;31.88;;
85475;SDS011;75880;41.476;22.164;2024-01-25T05:40:20;65.28;;;25.90;;
85475;SDS011;75880;41.476;22.164;2024-01-25T05:42:46;38.03;;;15.73;;
85475;SDS011;75880;41.476;22.164;2024-01-25T05:45:12;43.13;;;17.35;;
85475;SDS011;75880;41.476;22.164;2024-01-25T05:47:38;39.92;;;18.88;;
85475;SDS011;75880;41.476;22.164;2024-01-25T05:50:04;33.97;;;16.85;;
85475;SDS011;75880;41.476;22.164;2024-01-25T05:52:30;42.58;;;20.23;;
85475;SDS011;75880;41.476;22.164;2024-01-25T05:54:56;37.33;;;16.80;;
85475;SDS011;75880;41.476;22.164;2024-01-25T05:57:22;41.40;;;19.33;;
85475;SDS011;75880;41.476;22.164;2024-01-25T05:59:47;38.80;;;17.65;;
85475;SDS011;75880;41.476;22.164;2024-01-25T06:04:39;33.45;;;16.60;;
85475;SDS011;75880;41.476;22.164;2024-01-25T06:07:05;41.53;;;18.48;;
85475;SDS011;75880;41.476;22.164;2024-01-25T06:11:57;39.47;;;20.17;;
85475;SDS011;75880;41.476;22.164;2024-01-25T06:14:23;49.20;;;25.40;;
85475;SDS011;75880;41.476;22.164;2024-01-25T06:16:49;48.85;;;22.63;;
85475;SDS011;75880;41.476;22.164;2024-01-25T06:19:15;43.88;;;20.80;;
85475;SDS011;75880;41.476;22.164;2024-01-25T06:21:43;39.90;;;18.38;;
85475;SDS011;75880;41.476;22.164;2024-01-25T06:24:09;51.08;;;26.30;;
85475;SDS011;75880;41.476;22.164;2024-01-25T06:26:35;64.07;;;31.98;;
85475;SDS011;75880;41.476;22.164;2024-01-25T06:29:00;49.88;;;23.95;;
85475;SDS011;75880;41.476;22.164;2024-01-25T06:33:52;42.15;;;20.50;;
85475;SDS011;75880;41.476;22.164;2024-01-25T06:36:21;43.75;;;19.95;;
85475;SDS011;75880;41.476;22.164;2024-01-25T06:38:47;50.70;;;24.48;;
85475;SDS011;75880;41.476;22.164;2024-01-25T06:41:13;160.07;;;70.68;;
85475;SDS011;75880;41.476;22.164;2024-01-25T06:43:41;45.38;;;22.90;;
85475;SDS011;75880;41.476;22.164;2024-01-25T06:46:07;75.05;;;34.78;;
85475;SDS011;75880;41.476;22.164;2024-01-25T06:48:33;40.90;;;19.88;;
85475;SDS011;75880;41.476;22.164;2024-01-25T06:50:59;41.15;;;21.05;;
85475;SDS011;75880;41.476;22.164;2024-01-25T06:53:26;42.55;;;20.30;;
85475;SDS011;75880;41.476;22.164;2024-01-25T06:55:52;44.25;;;21.50;;
85475;SDS011;75880;41.476;22.164;2024-01-25T06:58:17;40.60;;;20.95;;
85475;SDS011;75880;41.476;22.164;2024-01-25T07:00:43;40.78;;;18.35;;
85475;SDS011;75880;41.476;22.164;2024-01-25T07:03:12;38.85;;;19.15;;
85475;SDS011;75880;41.476;22.164;2024-01-25T07:05:38;36.70;;;18.42;;
85475;SDS011;75880;41.476;22.164;2024-01-25T07:08:03;36.33;;;18.92;;
85475;SDS011;75880;41.476;22.164;2024-01-25T07:10:30;36.88;;;18.17;;
85475;SDS011;75880;41.476;22.164;2024-01-25T07:12:56;36.83;;;20.00;;
85475;SDS011;75880;41.476;22.164;2024-01-25T07:15:21;72.63;;;29.88;;
85475;SDS011;75880;41.476;22.164;2024-01-25T07:17:47;75.13;;;33.63;;
85475;SDS011;75880;41.476;22.164;2024-01-25T07:20:12;60.08;;;23.88;;
85475;SDS011;75880;41.476;22.164;2024-01-25T07:22:39;61.40;;;27.98;;
85475;SDS011;75880;41.476;22.164;2024-01-25T07:25:05;58.05;;;28.23;;
85475;SDS011;75880;41.476;22.164;2024-01-25T07:27:31;84.35;;;34.75;;
85475;SDS011;75880;41.476;22.164;2024-01-25T07:29:59;63.40;;;28.45;;
85475;SDS011;75880;41.476;22.164;2024-01-25T07:32:25;53.78;;;27.67;;
85475;SDS011;75880;41.476;22.164;2024-01-25T07:34:52;79.03;;;33.15;;
85475;SDS011;75880;41.476;22.164;2024-01-25T07:37:18;380.90;;;125.75;;
85475;SDS011;75880;41.476;22.164;2024-01-25T07:39:44;79.88;;;36.83;;
85475;SDS011;75880;41.476;22.164;2024-01-25T07:42:10;70.57;;;31.80;;
85475;SDS011;75880;41.476;22.164;2024-01-25T07:44:36;57.60;;;28.13;;
85475;SDS011;75880;41.476;22.164;2024-01-25T07:47:02;57.55;;;27.90;;
85475;SDS011;75880;41.476;22.164;2024-01-25T07:49:28;53.50;;;25.60;;
85475;SDS011;75880;41.476;22.164;2024-01-25T07:51:54;55.83;;;25.73;;
85475;SDS011;75880;41.476;22.164;2024-01-25T07:54:21;57.55;;;25.85;;
85475;SDS011;75880;41.476;22.164;2024-01-25T07:56:47;55.97;;;26.40;;
85475;SDS011;75880;41.476;22.164;2024-01-25T07:59:13;55.95;;;26.27;;
85475;SDS011;75880;41.476;22.164;2024-01-25T08:01:39;50.92;;;26.27;;
85475;SDS011;75880;41.476;22.164;2024-01-25T08:04:04;52.60;;;26.23;;
85475;SDS011;75880;41.476;22.164;2024-01-25T08:06:30;58.42;;;28.75;;
85475;SDS011;75880;41.476;22.164;2024-01-25T08:08:56;61.80;;;30.10;;
85475;SDS011;75880;41.476;22.164;2024-01-25T08:11:22;91.32;;;45.30;;
85475;SDS011;75880;41.476;22.164;2024-01-25T08:13:48;73.95;;;36.58;;
85475;SDS011;75880;41.476;22.164;2024-01-25T08:16:14;57.53;;;27.45;;
85475;SDS011;75880;41.476;22.164;2024-01-25T08:18:44;52.88;;;26.83;;
85475;SDS011;75880;41.476;22.164;2024-01-25T08:21:11;49.40;;;24.30;;
85475;SDS011;75880;41.476;22.164;2024-01-25T08:23:37;49.35;;;25.58;;
85475;SDS011;75880;41.476;22.164;2024-01-25T08:26:04;49.42;;;23.25;;
85475;SDS011;75880;41.476;22.164;2024-01-25T08:28:30;49.10;;;25.60;;
85475;SDS011;75880;41.476;22.164;2024-01-25T08:30:56;47.35;;;23.05;;
85475;SDS011;75880;41.476;22.164;2024-01-25T08:33:22;60.03;;;26.73;;
85475;SDS011;75880;41.476;22.164;2024-01-25T08:35:50;53.20;;;25.77;;
85475;SDS011;75880;41.476;22.164;2024-01-25T08:38:16;44.97;;;22.13;;
85475;SDS011;75880;41.476;22.164;2024-01-25T08:40:41;63.22;;;28.70;;
85475;SDS011;75880;41.476;22.164;2024-01-25T08:43:07;53.10;;;26.90;;
85475;SDS011;75880;41.476;22.164;2024-01-25T08:45:33;67.20;;;29.67;;
85475;SDS011;75880;41.476;22.164;2024-01-25T08:47:59;53.45;;;24.60;;
85475;SDS011;75880;41.476;22.164;2024-01-25T08:50:25;45.03;;;22.15;;
85475;SDS011;75880;41.476;22.164;2024-01-25T08:52:50;37.17;;;19.48;;
85475;SDS011;75880;41.476;22.164;2024-01-25T08:55:16;38.45;;;19.35;;
85475;SDS011;75880;41.476;22.164;2024-01-25T08:57:42;35.75;;;16.42;;
85475;SDS011;75880;41.476;22.164;2024-01-25T09:00:08;38.97;;;18.02;;
85475;SDS011;75880;41.476;22.164;2024-01-25T09:02:35;40.47;;;20.48;;
85475;SDS011;75880;41.476;22.164;2024-01-25T09:05:02;31.75;;;13.98;;
85475;SDS011;75880;41.476;22.164;2024-01-25T09:07:29;29.00;;;15.93;;
85475;SDS011;75880;41.476;22.164;2024-01-25T09:09:54;28.50;;;16.17;;
85475;SDS011;75880;41.476;22.164;2024-01-25T09:12:20;27.95;;;14.07;;
85475;SDS011;75880;41.476;22.164;2024-01-25T09:14:45;25.63;;;15.38;;
85475;SDS011;75880;41.476;22.164;2024-01-25T09:17:11;32.22;;;15.98;;
85475;SDS011;75880;41.476;22.164;2024-01-25T09:19:37;43.85;;;22.70;;
85475;SDS011;75880;41.476;22.164;2024-01-25T09:22:02;38.60;;;19.48;;
85475;SDS011;75880;41.476;22.164;2024-01-25T09:24:29;58.83;;;25.08;;
85475;SDS011;75880;41.476;22.164;2024-01-25T09:27:01;42.45;;;19.83;;
85475;SDS011;75880;41.476;22.164;2024-01-25T09:29:27;39.13;;;19.20;;
85475;SDS011;75880;41.476;22.164;2024-01-25T09:31:53;28.48;;;14.85;;
85475;SDS011;75880;41.476;22.164;2024-01-25T09:34:19;32.20;;;15.25;;
85475;SDS011;75880;41.476;22.164;2024-01-25T09:36:46;31.70;;;16.10;;
85475;SDS011;75880;41.476;22.164;2024-01-25T09:39:12;25.02;;;14.15;;
85475;SDS011;75880;41.476;22.164;2024-01-25T09:41:37;25.42;;;14.23;;
85475;SDS011;75880;41.476;22.164;2024-01-25T09:44:03;28.88;;;12.80;;
85475;SDS011;75880;41.476;22.164;2024-01-25T09:46:29;30.23;;;16.73;;
85475;SDS011;75880;41.476;22.164;2024-01-25T09:48:55;34.35;;;19.58;;
85475;SDS011;75880;41.476;22.164;2024-01-25T09:51:21;29.67;;;15.57;;
85475;SDS011;75880;41.476;22.164;2024-01-25T09:53:48;25.33;;;13.27;;
85475;SDS011;75880;41.476;22.164;2024-01-25T09:56:14;23.17;;;12.05;;
85475;SDS011;75880;41.476;22.164;2024-01-25T09:58:43;26.60;;;13.30;;
85475;SDS011;75880;41.476;22.164;2024-01-25T10:01:12;27.75;;;14.20;;
85475;SDS011;75880;41.476;22.164;2024-01-25T10:03:39;37.70;;;19.83;;
85475;SDS011;75880;41.476;22.164;2024-01-25T10:06:08;47.55;;;19.98;;
85475;SDS011;75880;41.476;22.164;2024-01-25T10:08:36;23.70;;;13.15;;
85475;SDS011;75880;41.476;22.164;2024-01-25T10:11:02;33.80;;;13.27;;
85475;SDS011;75880;41.476;22.164;2024-01-25T10:13:28;33.17;;;14.65;;
85475;SDS011;75880;41.476;22.164;2024-01-25T10:15:55;27.80;;;14.15;;
85475;SDS011;75880;41.476;22.164;2024-01-25T10:18:27;23.92;;;13.20;;
85475;SDS011;75880;41.476;22.164;2024-01-25T10:20:53;21.13;;;10.63;;
85475;SDS011;75880;41.476;22.164;2024-01-25T10:23:19;26.73;;;11.95;;
85475;SDS011;75880;41.476;22.164;2024-01-25T10:25:47;24.20;;;11.13;;
85475;SDS011;75880;41.476;22.164;2024-01-25T10:28:12;32.75;;;17.13;;
85475;SDS011;75880;41.476;22.164;2024-01-25T10:30:38;45.17;;;21.17;;
85475;SDS011;75880;41.476;22.164;2024-01-25T10:33:04;49.42;;;21.63;;
85475;SDS011;75880;41.476;22.164;2024-01-25T10:35:31;40.95;;;19.23;;
85475;SDS011;75880;41.476;22.164;2024-01-25T10:37:57;35.97;;;16.65;;
85475;SDS011;75880;41.476;22.164;2024-01-25T10:40:23;42.50;;;16.80;;
85475;SDS011;75880;41.476;22.164;2024-01-25T10:42:49;21.88;;;10.20;;
85475;SDS011;75880;41.476;22.164;2024-01-25T10:45:15;70.55;;;31.85;;
85475;SDS011;75880;41.476;22.164;2024-01-25T10:47:41;71.50;;;30.35;;
85475;SDS011;75880;41.476;22.164;2024-01-25T10:50:07;25.77;;;12.73;;
85475;SDS011;75880;41.476;22.164;2024-01-25T10:52:34;31.77;;;12.52;;
85475;SDS011;75880;41.476;22.164;2024-01-25T10:55:00;27.05;;;13.57;;
85475;SDS011;75880;41.476;22.164;2024-01-25T10:57:34;26.00;;;12.80;;
85475;SDS011;75880;41.476;22.164;2024-01-25T11:00:02;31.60;;;15.48;;
85475;SDS011;75880;41.476;22.164;2024-01-25T11:02:34;32.72;;;14.48;;
85475;SDS011;75880;41.476;22.164;2024-01-25T11:05:00;36.13;;;17.02;;
85475;SDS011;75880;41.476;22.164;2024-01-25T11:07:27;38.70;;;19.52;;
85475;SDS011;75880;41.476;22.164;2024-01-25T11:09:53;37.13;;;17.38;;
85475;SDS011;75880;41.476;22.164;2024-01-25T11:12:19;33.75;;;16.23;;
85475;SDS011;75880;41.476;22.164;2024-01-25T11:14:45;34.08;;;17.27;;
85475;SDS011;75880;41.476;22.164;2024-01-25T11:17:20;29.13;;;14.32;;
85475;SDS011;75880;41.476;22.164;2024-01-25T11:19:50;21.67;;;12.02;;
85475;SDS011;75880;41.476;22.164;2024-01-25T11:22:16;24.23;;;12.57;;
85475;SDS011;75880;41.476;22.164;2024-01-25T11:24:42;31.55;;;13.07;;
85475;SDS011;75880;41.476;22.164;2024-01-25T11:27:08;41.70;;;16.35;;
85475;SDS011;75880;41.476;22.164;2024-01-25T11:29:35;42.10;;;16.45;;
85475;SDS011;75880;41.476;22.164;2024-01-25T11:32:03;18.15;;;9.85;;
85475;SDS011;75880;41.476;22.164;2024-01-25T11:34:30;26.38;;;13.32;;
85475;SDS011;75880;41.476;22.164;2024-01-25T11:36:57;24.70;;;11.57;;
85475;SDS011;75880;41.476;22.164;2024-01-25T11:39:25;15.05;;;8.00;;
85475;SDS011;75880;41.476;22.164;2024-01-25T11:41:51;39.95;;;15.77;;
85475;SDS011;75880;41.476;22.164;2024-01-25T11:44:17;36.15;;;14.68;;
85475;SDS011;75880;41.476;22.164;2024-01-25T11:46:42;72.30;;;30.27;;
85475;SDS011;75880;41.476;22.164;2024-01-25T11:49:08;43.33;;;18.27;;
85475;SDS011;75880;41.476;22.164;2024-01-25T11:51:34;29.40;;;13.80;;
85475;SDS011;75880;41.476;22.164;2024-01-25T11:54:00;23.08;;;10.68;;
85475;SDS011;75880;41.476;22.164;2024-01-25T11:56:35;20.60;;;9.57;;
85475;SDS011;75880;41.476;22.164;2024-01-25T11:59:06;29.88;;;12.57;;
85475;SDS011;75880;41.476;22.164;2024-01-25T12:01:33;23.35;;;11.50;;
85475;SDS011;75880;41.476;22.164;2024-01-25T12:03:59;38.13;;;21.38;;
85475;SDS011;75880;41.476;22.164;2024-01-25T12:06:26;21.40;;;10.05;;
85475;SDS011;75880;41.476;22.164;2024-01-25T12:08:52;17.17;;;9.60;;
85475;SDS011;75880;41.476;22.164;2024-01-25T12:11:17;23.08;;;12.63;;
85475;SDS011;75880;41.476;22.164;2024-01-25T12:13:44;38.92;;;18.33;;
85475;SDS011;75880;41.476;22.164;2024-01-25T12:16:10;20.35;;;9.95;;
85475;SDS011;75880;41.476;22.164;2024-01-25T12:18:37;15.40;;;9.10;;
85475;SDS011;75880;41.476;22.164;2024-01-25T12:21:04;22.98;;;11.45;;
85475;SDS011;75880;41.476;22.164;2024-01-25T12:23:34;25.20;;;12.73;;
85475;SDS011;75880;41.476;22.164;2024-01-25T12:26:01;20.80;;;11.63;;
85475;SDS011;75880;41.476;22.164;2024-01-25T12:28:27;24.98;;;12.63;;
85475;SDS011;75880;41.476;22.164;2024-01-25T12:30:54;19.55;;;10.45;;
85475;SDS011;75880;41.476;22.164;2024-01-25T12:33:20;19.63;;;11.10;;
85475;SDS011;75880;41.476;22.164;2024-01-25T12:35:46;22.38;;;10.77;;
85475;SDS011;75880;41.476;22.164;2024-01-25T12:38:11;27.33;;;11.20;;
85475;SDS011;75880;41.476;22.164;2024-01-25T12:40:37;27.88;;;14.60;;
85475;SDS011;75880;41.476;22.164;2024-01-25T12:43:03;33.80;;;17.52;;
85475;SDS011;75880;41.476;22.164;2024-01-25T12:45:28;31.58;;;16.17;;
85475;SDS011;75880;41.476;22.164;2024-01-25T12:47:54;31.42;;;15.20;;
85475;SDS011;75880;41.476;22.164;2024-01-25T12:50:20;109.07;;;44.92;;
85475;SDS011;75880;41.476;22.164;2024-01-25T12:52:46;63.88;;;26.13;;
85475;SDS011;75880;41.476;22.164;2024-01-25T12:55:12;29.85;;;13.80;;
85475;SDS011;75880;41.476;22.164;2024-01-25T12:57:37;25.08;;;13.55;;
85475;SDS011;75880;41.476;22.164;2024-01-25T13:00:03;24.98;;;12.48;;
85475;SDS011;75880;41.476;22.164;2024-01-25T13:02:29;42.60;;;20.67;;
85475;SDS011;75880;41.476;22.164;2024-01-25T13:04:55;89.18;;;49.85;;
85475;SDS011;75880;41.476;22.164;2024-01-25T13:07:24;40.58;;;21.20;;
85475;SDS011;75880;41.476;22.164;2024-01-25T13:09:49;78.75;;;37.85;;
85475;SDS011;75880;41.476;22.164;2024-01-25T13:12:15;49.97;;;26.63;;
85475;SDS011;75880;41.476;22.164;2024-01-25T13:14:40;52.53;;;27.80;;
85475;SDS011;75880;41.476;22.164;2024-01-25T13:17:06;74.28;;;36.75;;
85475;SDS011;75880;41.476;22.164;2024-01-25T13:19:33;84.93;;;43.75;;
85475;SDS011;75880;41.476;22.164;2024-01-25T13:21:59;78.45;;;37.60;;
85475;SDS011;75880;41.476;22.164;2024-01-25T13:24:25;56.70;;;29.13;;
85475;SDS011;75880;41.476;22.164;2024-01-25T13:26:50;72.28;;;34.70;;
85475;SDS011;75880;41.476;22.164;2024-01-25T13:29:16;41.47;;;20.45;;
85475;SDS011;75880;41.476;22.164;2024-01-25T13:31:41;32.03;;;16.13;;
85475;SDS011;75880;41.476;22.164;2024-01-25T13:34:07;38.75;;;18.67;;
85475;SDS011;75880;41.476;22.164;2024-01-25T13:36:33;31.50;;;16.58;;
85475;SDS011;75880;41.476;22.164;2024-01-25T13:38:59;31.58;;;16.20;;
85475;SDS011;75880;41.476;22.164;2024-01-25T13:41:24;50.45;;;21.27;;
85475;SDS011;75880;41.476;22.164;2024-01-25T13:43:54;26.13;;;14.48;;
85475;SDS011;75880;41.476;22.164;2024-01-25T13:46:20;25.55;;;13.90;;
85475;SDS011;75880;41.476;22.164;2024-01-25T13:48:45;28.13;;;12.88;;
85475;SDS011;75880;41.476;22.164;2024-01-25T13:51:11;32.80;;;16.27;;
85475;SDS011;75880;41.476;22.164;2024-01-25T13:53:37;107.68;;;39.00;;
85475;SDS011;75880;41.476;22.164;2024-01-25T13:56:03;360.17;;;106.38;;
85475;SDS011;75880;41.476;22.164;2024-01-25T13:58:29;83.32;;;31.30;;
85475;SDS011;75880;41.476;22.164;2024-01-25T14:00:55;170.45;;;61.03;;
85475;SDS011;75880;41.476;22.164;2024-01-25T14:03:20;286.70;;;99.20;;
85475;SDS011;75880;41.476;22.164;2024-01-25T14:05:46;295.02;;;109.65;;
85475;SDS011;75880;41.476;22.164;2024-01-25T14:08:12;395.02;;;148.90;;
85475;SDS011;75880;41.476;22.164;2024-01-25T14:10:37;475.35;;;177.57;;
85475;SDS011;75880;41.476;22.164;2024-01-25T14:13:03;372.38;;;125.10;;
85475;SDS011;75880;41.476;22.164;2024-01-25T14:15:29;183.57;;;70.35;;
85475;SDS011;75880;41.476;22.164;2024-01-25T14:17:54;168.90;;;66.90;;
85475;SDS011;75880;41.476;22.164;2024-01-25T14:20:20;76.32;;;33.30;;
85475;SDS011;75880;41.476;22.164;2024-01-25T14:22:47;71.35;;;33.85;;
85475;SDS011;75880;41.476;22.164;2024-01-25T14:25:13;58.85;;;30.60;;
85475;SDS011;75880;41.476;22.164;2024-01-25T14:27:39;64.13;;;27.92;;
85475;SDS011;75880;41.476;22.164;2024-01-25T14:30:05;73.65;;;33.28;;
85475;SDS011;75880;41.476;22.164;2024-01-25T14:32:32;63.70;;;31.48;;
85475;SDS011;75880;41.476;22.164;2024-01-25T14:34:58;64.70;;;29.95;;
85475;SDS011;75880;41.476;22.164;2024-01-25T14:37:23;59.20;;;26.92;;
85475;SDS011;75880;41.476;22.164;2024-01-25T14:39:49;257.20;;;102.55;;
85475;SDS011;75880;41.476;22.164;2024-01-25T14:42:14;66.70;;;31.40;;
85475;SDS011;75880;41.476;22.164;2024-01-25T14:44:43;112.65;;;52.10;;
85475;SDS011;75880;41.476;22.164;2024-01-25T14:47:09;69.88;;;35.80;;
85475;SDS011;75880;41.476;22.164;2024-01-25T14:49:34;60.95;;;30.33;;
85475;SDS011;75880;41.476;22.164;2024-01-25T14:52:00;41.97;;;22.83;;
85475;SDS011;75880;41.476;22.164;2024-01-25T14:54:26;49.03;;;24.90;;
85475;SDS011;75880;41.476;22.164;2024-01-25T14:56:51;54.13;;;31.70;;
85475;SDS011;75880;41.476;22.164;2024-01-25T14:59:17;53.60;;;23.98;;